KINW

Winslow-Lindbergh Regional Airport

Winslow, Arizona, USA
METAR KINW 230756Z AUTO 14004KT 10SM CLR 12/M08 A3001 RMK AO2 SLP101 T01171078
Observed Flight Rules
May-23 @ 07:56 UTC (38 minutes ago) Visual Flight Rules
Wind Visibility Clouds
140° at 4 knots 10 miles
  • Clear skies
Temperatures Readings
Current 12°C / 54°F
Dewpoint -8°C / 18°F
Humidity 24%
Altimeter 30.01" Hg
Pressure 1010.1 hPa
Elevation 1490
METAR KINW 230756Z AUTO 14004KT 10SM CLR 12/M08 A3001 RMK AO2 SLP101 T01171078
Observed Flight Rules
May-23 @ 07:56 UTC
(38 minutes ago)
VFR
Wind Visibility
140° at 4 knots 10 miles
Clouds
  • Clear skies
Temperature Dewpoint
12°C / 54°F -8°C / 18°F
Humidity Altimeter Pressure
24% 30.01" Hg 1010.1 hPa